createdAt,value
2023-05-16T00:02:48.761Z,2.17
2023-05-16T00:07:06.698Z,2.90
2023-05-16T00:11:24.638Z,2.75
2023-05-16T00:15:44.313Z,2.90
2023-05-16T00:20:11.255Z,2.13
2023-05-16T00:24:28.879Z,2.20
2023-05-16T00:28:46.405Z,2.70
2023-05-16T00:33:04.386Z,2.42
2023-05-16T00:41:40.226Z,3.83
2023-05-16T00:58:52.265Z,3.03
2023-05-16T01:03:09.932Z,2.80
2023-05-16T01:07:27.861Z,3.03
2023-05-16T01:12:21.709Z,3.30
2023-05-16T01:16:54.999Z,2.80
2023-05-16T01:21:20.020Z,3.03
2023-05-16T01:25:54.285Z,3.40
2023-05-16T01:30:16.616Z,3.20
2023-05-16T01:34:34.327Z,3.03
2023-05-16T01:39:08.247Z,3.20
2023-05-16T01:43:37.358Z,2.95
2023-05-16T01:48:14.028Z,3.85
2023-05-16T01:53:01.197Z,3.78
2023-05-16T01:57:20.181Z,3.17
2023-05-16T02:01:37.909Z,3.03
2023-05-16T02:05:55.540Z,3.22
2023-05-16T02:10:14.403Z,3.63
2023-05-16T02:14:31.902Z,3.80
2023-05-16T02:18:50.187Z,3.13
2023-05-16T02:23:07.879Z,3.28
2023-05-16T02:27:26.747Z,3.70
2023-05-16T02:31:44.233Z,3.00
2023-05-16T02:36:01.955Z,3.20
2023-05-16T02:40:19.528Z,3.47
2023-05-16T02:44:37.409Z,3.35
2023-05-16T02:48:55.301Z,3.72
2023-05-16T02:53:13.168Z,4.80
2023-05-16T02:57:30.741Z,4.72
2023-05-16T03:01:48.407Z,4.75
2023-05-16T03:06:06.429Z,3.42
2023-05-16T03:10:24.046Z,3.38
2023-05-16T03:14:42.795Z,3.00
2023-05-16T03:19:00.455Z,2.92
2023-05-16T03:23:17.648Z,3.13
2023-05-16T03:27:35.192Z,3.38
2023-05-16T03:31:53.325Z,3.60
2023-05-16T03:40:28.921Z,3.17
2023-05-16T03:44:46.681Z,3.60
2023-05-16T03:49:04.796Z,2.92
2023-05-16T03:57:39.885Z,3.43
2023-05-16T04:01:57.556Z,3.03
2023-05-16T04:06:15.260Z,2.80
2023-05-16T04:10:33.019Z,2.65
2023-05-16T04:14:50.762Z,2.67
2023-05-16T04:19:08.322Z,2.38
2023-05-16T04:23:26.045Z,3.08
2023-05-16T04:27:43.549Z,2.65
2023-05-16T04:32:02.404Z,3.00
2023-05-16T04:36:20.373Z,2.30
2023-05-16T04:40:38.085Z,2.33
2023-05-16T04:44:56.491Z,2.35
2023-05-16T04:49:14.857Z,2.40
2023-05-16T04:53:32.718Z,2.55
2023-05-16T04:57:50.377Z,2.17
2023-05-16T05:02:08.232Z,2.60
2023-05-16T05:10:44.171Z,3.13
2023-05-16T05:15:04.043Z,3.38
2023-05-16T05:19:21.694Z,3.08
2023-05-16T05:23:39.837Z,2.90
2023-05-16T05:27:56.888Z,2.92
2023-05-16T05:32:14.922Z,2.85
2023-05-16T05:36:32.559Z,3.15
2023-05-16T05:40:50.235Z,3.33
2023-05-16T05:45:08.568Z,3.65
2023-05-16T05:49:27.825Z,4.28
2023-05-16T05:53:45.557Z,4.22
2023-05-16T05:58:04.970Z,4.88
2023-05-16T06:02:24.585Z,3.78
2023-05-16T06:06:42.484Z,4.60
2023-05-16T06:11:00.924Z,4.43
2023-05-16T06:15:18.684Z,4.20
2023-05-16T06:19:36.333Z,3.72
2023-05-16T06:23:53.975Z,4.25
2023-05-16T06:28:11.613Z,3.88
2023-05-16T06:32:29.796Z,3.63
2023-05-16T06:36:47.325Z,3.00
2023-05-16T06:41:04.958Z,3.78
2023-05-16T06:45:22.673Z,3.35
2023-05-16T06:49:40.459Z,3.92
2023-05-16T06:53:58.175Z,3.45
2023-05-16T06:58:15.981Z,3.55
2023-05-16T07:02:33.548Z,3.63
2023-05-16T07:06:51.592Z,2.95
2023-05-16T07:11:08.685Z,2.95
2023-05-16T07:15:27.112Z,4.15
2023-05-16T07:19:45.111Z,2.83
2023-05-16T07:24:02.806Z,3.45
2023-05-16T07:28:20.312Z,3.50
2023-05-16T07:32:38.789Z,9.70
2023-05-16T07:36:56.768Z,2.78
2023-05-16T07:41:14.518Z,3.00
2023-05-16T07:45:32.190Z,1.90
2023-05-16T07:49:49.997Z,2.65
2023-05-16T07:54:07.633Z,2.60
2023-05-16T07:58:25.449Z,2.22
2023-05-16T08:02:43.482Z,2.08
2023-05-16T08:07:01.443Z,2.55
2023-05-16T08:11:22.643Z,2.65
2023-05-16T08:15:40.494Z,2.25
2023-05-16T08:19:59.495Z,2.70
2023-05-16T08:24:18.312Z,2.97
2023-05-16T08:28:36.400Z,2.70
2023-05-16T08:37:11.642Z,2.88
2023-05-16T08:41:30.400Z,2.17
2023-05-16T08:45:48.121Z,2.10
2023-05-16T08:50:12.126Z,3.35
2023-05-16T08:54:30.293Z,3.00
2023-05-16T08:58:49.499Z,2.42
2023-05-16T09:03:07.323Z,2.58
2023-05-16T09:07:25.314Z,2.65
2023-05-16T09:16:15.468Z,2.40
2023-05-16T09:20:33.064Z,2.10
2023-05-16T09:24:51.324Z,2.60
2023-05-16T09:29:13.163Z,2.80
2023-05-16T09:33:31.172Z,2.05
2023-05-16T09:37:49.763Z,2.38
2023-05-16T09:42:12.943Z,1.95
2023-05-16T09:46:31.708Z,2.78
2023-05-16T09:50:55.365Z,2.40
2023-05-16T09:55:13.306Z,2.03
2023-05-16T10:03:49.657Z,2.38
2023-05-16T10:12:34.106Z,2.10
2023-05-16T10:16:53.095Z,2.00
2023-05-16T10:21:16.641Z,1.90
2023-05-16T10:25:45.446Z,2.38
2023-05-16T10:30:06.222Z,1.60
2023-05-16T10:34:24.212Z,2.10
2023-05-16T10:38:42.910Z,2.20
2023-05-16T10:43:03.566Z,2.03
2023-05-16T10:47:21.385Z,2.22
2023-05-16T10:51:39.404Z,1.90
2023-05-16T10:56:00.115Z,1.40
2023-05-16T11:00:23.651Z,1.65
2023-05-16T11:04:53.512Z,1.80
2023-05-16T11:09:11.088Z,1.40
2023-05-16T11:13:29.149Z,1.60
2023-05-16T11:17:47.384Z,1.50
2023-05-16T11:22:21.150Z,1.55
2023-05-16T11:26:39.547Z,1.48
2023-05-16T11:31:00.269Z,1.25
2023-05-16T11:35:19.153Z,1.40
2023-05-16T11:39:36.783Z,1.50
2023-05-16T11:43:54.570Z,1.17
2023-05-16T11:52:49.346Z,1.05
2023-05-16T11:57:07.245Z,1.15
2023-05-16T12:05:57.372Z,1.60
2023-05-16T12:10:17.341Z,1.20
2023-05-16T12:14:35.251Z,1.40
2023-05-16T12:23:13.028Z,1.55
2023-05-16T12:27:30.834Z,1.95
2023-05-16T12:31:48.814Z,1.67
2023-05-16T12:36:14.765Z,1.38
2023-05-16T12:40:32.609Z,2.05
2023-05-16T12:44:50.210Z,1.58
2023-05-16T12:53:26.967Z,1.48
2023-05-16T12:57:46.599Z,1.73
2023-05-16T13:02:04.810Z,1.88
2023-05-16T13:06:22.645Z,1.60
2023-05-16T13:10:40.829Z,1.55
2023-05-16T13:14:58.633Z,1.85
2023-05-16T13:23:34.176Z,1.40
2023-05-16T13:27:51.796Z,1.65
2023-05-16T13:32:11.387Z,1.52
2023-05-16T13:41:00.685Z,1.85
2023-05-16T13:45:18.760Z,1.90
2023-05-16T13:49:36.725Z,1.35
2023-05-16T13:53:54.537Z,2.20
2023-05-16T13:58:12.173Z,1.88
2023-05-16T14:02:29.893Z,1.65
2023-05-16T14:06:47.544Z,1.60
2023-05-16T14:11:05.352Z,2.20
2023-05-16T14:15:22.882Z,2.53
2023-05-16T14:19:40.585Z,1.38
2023-05-16T14:23:58.194Z,2.03
2023-05-16T14:28:15.907Z,2.28
2023-05-16T14:32:33.628Z,1.65
2023-05-16T14:36:51.493Z,1.50
2023-05-16T14:41:09.093Z,1.88
2023-05-16T14:45:27.215Z,1.88
2023-05-16T14:49:45.123Z,1.52
2023-05-16T14:54:03.095Z,1.75
2023-05-16T15:02:38.338Z,1.65
2023-05-16T15:06:56.165Z,1.52
2023-05-16T15:11:13.847Z,1.63
2023-05-16T15:15:32.322Z,1.73
2023-05-16T15:19:50.245Z,2.28
2023-05-16T15:24:08.546Z,3.28
2023-05-16T15:28:26.379Z,2.75
2023-05-16T15:32:44.599Z,1.95
2023-05-16T15:37:02.566Z,2.30
2023-05-16T15:41:43.279Z,2.40
2023-05-16T15:45:58.845Z,2.38
2023-05-16T15:50:16.618Z,2.60
2023-05-16T15:54:37.862Z,2.90
2023-05-16T15:58:56.616Z,13.70
2023-05-16T16:03:14.455Z,12.52
2023-05-16T16:07:32.041Z,5.90
2023-05-16T16:11:50.142Z,3.75
2023-05-16T16:16:08.136Z,3.17
2023-05-16T16:24:44.287Z,2.90
2023-05-16T16:29:05.070Z,2.97
2023-05-16T16:33:22.769Z,3.20
2023-05-16T16:37:41.684Z,3.70
2023-05-16T16:42:01.626Z,3.30
2023-05-16T16:46:19.487Z,3.40
2023-05-16T16:54:54.852Z,4.57
2023-05-16T16:59:12.535Z,4.25
2023-05-16T17:03:30.821Z,4.15
2023-05-16T17:07:48.721Z,4.60
2023-05-16T17:12:08.773Z,5.40
2023-05-16T17:16:28.268Z,5.80
2023-05-16T17:20:45.816Z,4.80
2023-05-16T17:25:04.497Z,4.97
2023-05-16T17:29:22.056Z,4.28
2023-05-16T17:33:39.757Z,4.45
2023-05-16T17:37:57.433Z,4.07
2023-05-16T17:42:15.298Z,4.32
2023-05-16T17:59:27.776Z,3.65
2023-05-16T18:03:45.404Z,4.03
2023-05-16T18:08:05.080Z,3.25
2023-05-16T18:12:23.749Z,4.05
2023-05-16T18:16:41.472Z,4.10
2023-05-16T18:20:59.008Z,3.60
2023-05-16T18:25:16.930Z,4.20
2023-05-16T18:33:52.441Z,4.00
2023-05-16T18:38:17.425Z,3.90
2023-05-16T18:42:42.268Z,4.03
2023-05-16T18:46:59.959Z,5.25
2023-05-16T18:51:17.824Z,5.57
2023-05-16T18:55:35.599Z,6.10
2023-05-16T18:59:53.729Z,7.35
2023-05-16T19:04:11.467Z,5.80
2023-05-16T19:08:40.314Z,5.95
2023-05-16T19:13:08.842Z,9.35
2023-05-16T19:17:27.539Z,5.53
2023-05-16T19:21:45.740Z,8.77
2023-05-16T19:26:03.267Z,4.53
2023-05-16T19:30:20.521Z,4.15
2023-05-16T19:34:38.120Z,4.43
2023-05-16T19:38:55.965Z,4.07
2023-05-16T19:43:13.593Z,3.70
2023-05-16T19:47:31.890Z,3.53
2023-05-16T19:51:49.637Z,3.35
2023-05-16T19:56:07.533Z,3.22
2023-05-16T20:00:25.403Z,3.45
2023-05-16T20:09:01.115Z,2.88
2023-05-16T20:13:20.736Z,2.50
2023-05-16T20:17:39.994Z,2.53
2023-05-16T20:21:57.694Z,2.35
2023-05-16T20:26:15.606Z,2.55
2023-05-16T20:34:50.957Z,2.60
2023-05-16T20:39:09.371Z,1.88
2023-05-16T20:43:27.021Z,2.10
2023-05-16T20:47:45.206Z,1.15
2023-05-16T20:52:04.401Z,1.40
2023-05-16T20:56:22.614Z,1.48
2023-05-16T21:00:40.510Z,1.40
2023-05-16T21:05:02.131Z,1.65
2023-05-16T21:09:23.858Z,1.17
2023-05-16T21:13:41.656Z,1.00
2023-05-16T21:17:59.312Z,1.45
2023-05-16T21:26:35.764Z,1.15
2023-05-16T21:30:54.652Z,1.30
2023-05-16T21:35:12.294Z,1.40
2023-05-16T21:39:30.011Z,1.35
2023-05-16T21:43:47.784Z,1.38
2023-05-16T21:48:08.071Z,1.27
2023-05-16T21:56:43.811Z,1.15
2023-05-16T22:01:01.432Z,1.05
2023-05-16T22:05:19.913Z,1.30
2023-05-16T22:09:37.030Z,1.30
2023-05-16T22:13:55.012Z,1.50
2023-05-16T22:18:12.650Z,1.30
2023-05-16T22:22:30.777Z,1.65
2023-05-16T22:26:48.416Z,1.38
2023-05-16T22:31:06.072Z,1.08
2023-05-16T22:35:25.612Z,1.10
2023-05-16T22:39:43.325Z,1.63
2023-05-16T22:44:01.075Z,1.38
2023-05-16T22:48:18.730Z,1.10
2023-05-16T22:52:41.391Z,0.98
2023-05-16T22:56:58.965Z,1.10
2023-05-16T23:01:16.617Z,0.90
2023-05-16T23:05:34.196Z,1.00
2023-05-16T23:09:52.001Z,0.93
2023-05-16T23:14:09.712Z,1.00
2023-05-16T23:18:27.601Z,0.77
2023-05-16T23:22:45.195Z,0.80
2023-05-16T23:27:02.886Z,0.70
2023-05-16T23:31:20.504Z,1.10
2023-05-16T23:35:38.034Z,0.95
2023-05-16T23:39:55.755Z,0.95
2023-05-16T23:44:13.266Z,1.00
2023-05-16T23:48:31.027Z,1.17
2023-05-16T23:52:48.873Z,0.80
2023-05-16T23:57:06.397Z,1.10
